Wezembeek-Oppem, Belgium
Current Conditions -  °F | °C
As of 9:50 AM on Wednesday 28 Jan 2015 (Local Time) from EBBR Reporting Station
Broken Clouds Broken Clouds  
Wind Chill: 35°   Ceiling: 1500
Heat Index: 43°   Visibility: 6mi
Dew Point: 39°   Wind: 16mph
Humidity: 87%   Direction: 210°SSW
Pressure: 29.85"   Gusts: 28mph
Location:  50.84°N, 4.49°E
Report Text: EBBR 280850Z 21014G24KT 9999 FEW011 BKN015 06/04 Q1011 NOSIG
Loading
Personal Weather Stations






























Interactive Weather Map New forecast layout! Learn more

10-Day Weather Forecast

Advertisements
Track Severe Weather on mobile